createdAt,value
2019-02-26T00:02:00.458Z,11.40
2019-02-26T00:04:34.448Z,10.60
2019-02-26T00:07:06.449Z,11.80
2019-02-26T00:09:39.036Z,11.80
2019-02-26T00:12:11.369Z,9.20
2019-02-26T00:14:45.371Z,9.80
2019-02-26T00:17:19.550Z,8.40
2019-02-26T00:19:51.527Z,11.20
2019-02-26T00:22:23.838Z,10.60
2019-02-26T00:24:56.073Z,11.00
2019-02-26T00:27:32.884Z,10.00
2019-02-26T00:30:07.440Z,8.00
2019-02-26T00:32:40.487Z,9.20
2019-02-26T00:35:13.082Z,10.40
2019-02-26T00:37:46.666Z,9.40
2019-02-26T00:40:20.145Z,9.80
2019-02-26T00:42:56.471Z,9.20
2019-02-26T00:45:27.282Z,7.20
2019-02-26T00:48:00.854Z,7.60
2019-02-26T00:50:35.565Z,9.00
2019-02-26T00:53:06.945Z,9.00
2019-02-26T00:55:39.749Z,9.00
2019-02-26T00:58:12.871Z,8.60
2019-02-26T01:00:45.285Z,9.00
2019-02-26T01:03:17.732Z,8.20
2019-02-26T01:05:50.253Z,8.40
2019-02-26T01:08:22.738Z,8.20
2019-02-26T01:10:56.963Z,7.00
2019-02-26T01:13:30.092Z,9.00
2019-02-26T01:16:03.151Z,8.60
2019-02-26T01:18:35.623Z,7.40
2019-02-26T01:21:08.030Z,7.00
2019-02-26T01:23:40.412Z,7.60
2019-02-26T01:26:13.020Z,6.00
2019-02-26T01:28:48.320Z,6.40
2019-02-26T01:31:20.686Z,6.60
2019-02-26T01:33:55.190Z,6.40
2019-02-26T01:36:27.162Z,7.00
2019-02-26T01:38:59.565Z,6.40
2019-02-26T01:41:32.152Z,8.40
2019-02-26T01:44:04.719Z,5.40
2019-02-26T01:46:38.825Z,6.00
2019-02-26T01:49:10.941Z,6.00
2019-02-26T01:51:44.969Z,5.00
2019-02-26T01:54:17.311Z,6.00
2019-02-26T01:56:52.674Z,5.00
2019-02-26T01:59:24.087Z,5.80
2019-02-26T02:01:56.676Z,5.80
2019-02-26T02:04:29.065Z,4.00
2019-02-26T02:07:03.490Z,6.00
2019-02-26T02:12:27.458Z,7.80
2019-02-26T02:14:58.569Z,5.40
2019-02-26T02:17:33.285Z,5.00
2019-02-26T02:20:07.836Z,5.80
2019-02-26T02:22:40.386Z,5.20
2019-02-26T02:25:14.735Z,4.60
2019-02-26T02:27:50.066Z,5.20
2019-02-26T02:30:26.811Z,4.00
2019-02-26T02:32:57.552Z,4.00
2019-02-26T02:35:29.699Z,3.40
2019-02-26T02:38:04.332Z,3.20
2019-02-26T02:40:39.885Z,0.80
2019-02-26T02:43:12.298Z,2.40
2019-02-26T02:45:44.034Z,3.00
2019-02-26T02:48:16.608Z,2.00
2019-02-26T02:50:49.293Z,1.00
2019-02-26T02:53:23.946Z,1.00
2019-02-26T02:55:55.520Z,2.00
2019-02-26T02:58:28.367Z,1.80
2019-02-26T03:01:00.738Z,2.00
2019-02-26T03:03:33.421Z,2.00
2019-02-26T03:06:07.635Z,1.40
2019-02-26T03:08:42.118Z,1.60
2019-02-26T03:11:13.570Z,7.20
2019-02-26T03:13:48.340Z,20.40
2019-02-26T03:16:21.974Z,25.80
2019-02-26T03:18:53.807Z,29.75
2019-02-26T03:21:27.778Z,34.50
2019-02-26T03:24:02.881Z,35.25
2019-02-26T03:26:34.595Z,39.00
2019-02-26T03:29:06.920Z,39.00
2019-02-26T03:31:41.122Z,42.75
2019-02-26T03:34:19.725Z,42.75
2019-02-26T03:36:48.379Z,45.75
2019-02-26T03:39:20.676Z,50.75
2019-02-26T03:41:53.483Z,49.00
2019-02-26T03:44:29.612Z,48.00
2019-02-26T03:47:00.880Z,47.00
2019-02-26T03:49:33.225Z,42.00
2019-02-26T03:52:05.433Z,44.50
2019-02-26T03:54:40.241Z,44.25
2019-02-26T03:57:14.096Z,46.00
2019-02-26T03:59:46.065Z,47.50
2019-02-26T04:02:20.862Z,76.50
2019-02-26T04:04:54.383Z,155.20
2019-02-26T04:07:28.361Z,200.80
2019-02-26T04:10:01.018Z,224.60
2019-02-26T04:12:39.224Z,221.40
2019-02-26T04:15:15.760Z,208.40
2019-02-26T04:17:48.181Z,208.50
2019-02-26T04:20:20.427Z,203.80
2019-02-26T04:22:53.938Z,199.20
2019-02-26T04:25:38.066Z,188.20
2019-02-26T04:28:12.750Z,179.80
2019-02-26T04:31:05.239Z,183.20
2019-02-26T04:33:48.779Z,181.20
2019-02-26T04:36:29.584Z,176.80
2019-02-26T04:39:34.106Z,176.60
2019-02-26T04:42:17.550Z,169.25
2019-02-26T04:45:10.644Z,165.25
2019-02-26T04:47:51.873Z,159.75
2019-02-26T04:50:26.055Z,157.75
2019-02-26T04:52:59.750Z,155.25
2019-02-26T04:55:32.908Z,153.25
2019-02-26T04:58:04.843Z,146.75
2019-02-26T05:00:38.646Z,145.00
2019-02-26T05:06:05.319Z,116.25
2019-02-26T05:08:42.855Z,102.25
2019-02-26T05:11:30.803Z,96.50
2019-02-26T05:13:50.952Z,81.00
2019-02-26T05:16:28.857Z,75.75
2019-02-26T05:18:59.916Z,77.00
2019-02-26T05:21:40.949Z,70.50
2019-02-26T05:24:15.728Z,73.50
2019-02-26T05:26:48.230Z,77.75
2019-02-26T05:29:20.640Z,78.25
2019-02-26T05:31:58.839Z,76.25
2019-02-26T05:34:39.887Z,76.50
2019-02-26T05:37:13.981Z,74.25
2019-02-26T05:39:49.091Z,75.25
2019-02-26T05:42:21.177Z,75.50
2019-02-26T05:44:59.148Z,75.50
2019-02-26T05:47:32.575Z,72.50
2019-02-26T05:50:08.724Z,73.00
2019-02-26T05:52:40.506Z,69.50
2019-02-26T05:55:17.664Z,72.50
2019-02-26T05:57:50.387Z,71.25
2019-02-26T06:00:26.268Z,70.50
2019-02-26T06:02:57.155Z,70.00
2019-02-26T06:05:29.829Z,69.00
2019-02-26T06:08:02.051Z,68.50
2019-02-26T06:10:34.687Z,66.75
2019-02-26T06:13:10.084Z,68.00
2019-02-26T06:15:44.938Z,69.25
2019-02-26T06:18:17.759Z,69.00
2019-02-26T06:20:51.580Z,64.75
2019-02-26T06:23:25.425Z,63.25
2019-02-26T06:26:02.349Z,62.25
2019-02-26T06:28:38.031Z,62.75
2019-02-26T06:31:11.530Z,61.25
2019-02-26T06:33:43.680Z,61.25
2019-02-26T06:36:17.953Z,58.75
2019-02-26T06:38:53.726Z,59.75
2019-02-26T06:41:24.897Z,59.25
2019-02-26T06:43:57.991Z,56.50
2019-02-26T06:46:33.791Z,58.75
2019-02-26T06:49:06.917Z,56.25
2019-02-26T06:51:39.126Z,53.00
2019-02-26T06:54:15.354Z,55.75
2019-02-26T06:56:46.833Z,56.25
2019-02-26T06:59:25.180Z,55.25
2019-02-26T07:01:58.042Z,54.50
2019-02-26T07:04:32.510Z,52.50
2019-02-26T07:07:07.387Z,54.50
2019-02-26T07:09:39.622Z,53.00
2019-02-26T07:12:14.470Z,48.75
2019-02-26T07:14:48.362Z,50.25
2019-02-26T07:17:20.924Z,49.75
2019-02-26T07:19:55.449Z,50.25
2019-02-26T07:22:27.237Z,45.00
2019-02-26T07:24:59.666Z,46.25
2019-02-26T07:27:33.692Z,46.00
2019-02-26T07:30:07.857Z,46.25
2019-02-26T07:32:40.859Z,46.00
2019-02-26T07:35:16.637Z,43.75
2019-02-26T07:37:48.372Z,42.00
2019-02-26T07:40:20.853Z,41.00
2019-02-26T07:42:53.267Z,40.50
2019-02-26T07:45:27.314Z,40.25
2019-02-26T07:48:00.967Z,39.50
2019-02-26T07:50:37.688Z,38.75
2019-02-26T07:53:08.207Z,38.75
2019-02-26T07:55:42.387Z,39.75
2019-02-26T07:58:15.578Z,40.25
2019-02-26T08:00:49.715Z,37.50
2019-02-26T08:03:26.185Z,36.75
2019-02-26T08:05:59.297Z,37.75
2019-02-26T08:08:31.593Z,36.75
2019-02-26T08:11:03.894Z,35.25
2019-02-26T08:13:36.655Z,36.25
2019-02-26T08:16:09.017Z,35.50
2019-02-26T08:18:41.674Z,34.50
2019-02-26T08:21:14.128Z,35.50
2019-02-26T08:23:48.243Z,35.50
2019-02-26T08:26:22.117Z,35.50
2019-02-26T08:28:54.681Z,33.00
2019-02-26T08:31:27.944Z,34.50
2019-02-26T08:34:00.620Z,33.00
2019-02-26T08:36:32.923Z,34.25
2019-02-26T08:39:06.849Z,33.00
2019-02-26T08:41:43.155Z,33.25
2019-02-26T08:44:14.604Z,30.25
2019-02-26T08:46:48.935Z,32.00
2019-02-26T08:49:22.526Z,28.00
2019-02-26T08:51:55.116Z,26.75
2019-02-26T08:54:30.258Z,24.50
2019-02-26T08:57:01.607Z,22.50
2019-02-26T08:59:34.102Z,24.20
2019-02-26T09:02:07.636Z,23.00
2019-02-26T09:04:40.861Z,21.60
2019-02-26T09:07:16.362Z,23.80
2019-02-26T09:09:50.122Z,23.60
2019-02-26T09:12:24.726Z,20.80
2019-02-26T09:14:56.880Z,23.60
2019-02-26T09:17:30.417Z,22.60
2019-02-26T09:20:09.275Z,23.80
2019-02-26T09:22:37.891Z,22.60
2019-02-26T09:25:11.658Z,21.20
2019-02-26T09:27:44.100Z,22.60
2019-02-26T09:30:20.060Z,23.20
2019-02-26T09:32:52.669Z,16.60
2019-02-26T09:35:28.294Z,20.00
2019-02-26T09:38:00.896Z,21.00
2019-02-26T09:40:34.429Z,21.20
2019-02-26T09:43:07.027Z,21.20
2019-02-26T09:45:41.194Z,20.20
2019-02-26T09:48:15.229Z,20.80
2019-02-26T09:50:48.697Z,22.00
2019-02-26T09:53:21.145Z,19.00
2019-02-26T09:55:53.612Z,19.80
2019-02-26T09:58:25.967Z,19.60
2019-02-26T10:00:58.224Z,20.20
2019-02-26T10:03:34.474Z,19.40
2019-02-26T10:06:05.016Z,19.40
2019-02-26T10:08:37.837Z,19.80
2019-02-26T10:11:10.439Z,14.00
2019-02-26T10:13:44.401Z,17.20
2019-02-26T10:16:16.871Z,14.00
2019-02-26T10:18:50.018Z,13.40
2019-02-26T10:21:23.533Z,12.40
2019-02-26T10:23:56.897Z,10.80
2019-02-26T10:26:33.362Z,12.00
2019-02-26T10:29:05.991Z,12.00
2019-02-26T10:31:41.104Z,14.00
2019-02-26T10:34:15.660Z,13.00
2019-02-26T10:36:49.319Z,12.40
2019-02-26T10:39:23.179Z,9.60
2019-02-26T10:41:55.170Z,13.00
2019-02-26T10:44:27.675Z,11.40
2019-02-26T10:47:01.209Z,10.80
2019-02-26T10:49:34.234Z,12.00
2019-02-26T10:52:06.946Z,11.80
2019-02-26T10:54:40.562Z,11.00
2019-02-26T10:57:14.541Z,11.00
2019-02-26T10:59:46.973Z,10.80
2019-02-26T11:02:20.752Z,9.00
2019-02-26T11:04:55.420Z,10.20
2019-02-26T11:07:28.757Z,10.00
2019-02-26T11:10:01.773Z,9.60
2019-02-26T11:12:35.631Z,10.20
2019-02-26T11:15:10.609Z,7.00
2019-02-26T11:17:43.936Z,9.40
2019-02-26T11:20:21.854Z,9.60
2019-02-26T11:22:54.941Z,10.00
2019-02-26T11:25:27.722Z,8.80
2019-02-26T11:28:02.550Z,8.20
2019-02-26T11:30:34.208Z,9.60
2019-02-26T11:33:08.616Z,6.40
2019-02-26T11:35:42.196Z,7.00
2019-02-26T11:38:16.960Z,6.80
2019-02-26T11:40:48.826Z,4.80
2019-02-26T11:43:25.560Z,5.20
2019-02-26T11:45:56.750Z,7.40
2019-02-26T11:48:32.709Z,6.00
2019-02-26T11:51:03.621Z,5.60
2019-02-26T11:53:36.403Z,5.40
2019-02-26T11:56:09.105Z,5.80
2019-02-26T11:58:41.721Z,7.00
2019-02-26T12:01:14.819Z,5.50
2019-02-26T12:03:47.217Z,5.00
2019-02-26T12:06:19.796Z,4.60
2019-02-26T12:08:52.460Z,6.60
2019-02-26T12:11:25.513Z,4.20
2019-02-26T12:13:58.283Z,4.60
2019-02-26T12:16:30.755Z,4.20
2019-02-26T12:19:04.040Z,4.20
2019-02-26T12:21:37.172Z,5.00
2019-02-26T12:24:12.448Z,5.20
2019-02-26T12:26:45.298Z,3.00
2019-02-26T12:29:18.687Z,4.20
2019-02-26T12:31:53.806Z,5.40
2019-02-26T12:34:25.641Z,5.00
2019-02-26T12:37:02.082Z,5.00
2019-02-26T12:39:32.069Z,5.40
2019-02-26T12:42:07.075Z,4.40
2019-02-26T12:44:42.317Z,4.00
2019-02-26T12:47:14.686Z,4.00
2019-02-26T12:49:46.674Z,4.00
2019-02-26T12:52:21.924Z,4.00
2019-02-26T12:54:54.862Z,3.60
2019-02-26T12:57:28.884Z,3.00
2019-02-26T13:00:01.263Z,3.40
2019-02-26T13:02:36.916Z,0.00
2019-02-26T13:05:12.836Z,2.00
2019-02-26T13:07:44.495Z,2.20
2019-02-26T13:10:26.854Z,2.00
2019-02-26T13:13:03.001Z,3.00
2019-02-26T13:15:33.909Z,2.80
2019-02-26T13:18:06.630Z,3.00
2019-02-26T13:20:39.205Z,1.80
2019-02-26T13:23:21.575Z,3.00
2019-02-26T13:25:46.990Z,3.00
2019-02-26T13:28:19.557Z,3.60
2019-02-26T13:30:52.219Z,1.60
2019-02-26T13:33:32.520Z,2.00
2019-02-26T13:36:01.193Z,2.20
2019-02-26T13:38:37.617Z,2.00
2019-02-26T13:41:27.316Z,2.00
2019-02-26T13:43:41.295Z,3.00
2019-02-26T13:46:15.223Z,2.60
2019-02-26T13:48:47.709Z,1.60
2019-02-26T13:51:21.318Z,2.00
2019-02-26T13:53:53.802Z,1.00
2019-02-26T13:56:26.594Z,1.00
2019-02-26T13:58:59.282Z,1.20
2019-02-26T14:01:31.908Z,1.00
2019-02-26T14:04:04.612Z,1.60
2019-02-26T14:06:37.330Z,1.00
2019-02-26T14:09:10.108Z,1.00
2019-02-26T14:11:43.010Z,1.00
2019-02-26T14:14:16.955Z,0.00
2019-02-26T14:16:49.998Z,0.00
2019-02-26T14:19:22.468Z,1.00
2019-02-26T14:21:55.083Z,1.00
2019-02-26T14:24:27.584Z,1.00
2019-02-26T14:27:00.265Z,0.20
2019-02-26T14:29:32.779Z,0.00
2019-02-26T14:32:05.416Z,1.00
2019-02-26T14:34:37.893Z,1.00
2019-02-26T14:37:10.386Z,0.00
2019-02-26T14:39:42.885Z,0.00
2019-02-26T14:42:16.378Z,0.00
2019-02-26T14:44:49.147Z,0.00
2019-02-26T14:47:21.832Z,0.00
2019-02-26T14:49:54.408Z,0.00
2019-02-26T14:52:27.090Z,0.00
2019-02-26T14:54:59.753Z,0.00
2019-02-26T14:57:32.464Z,0.00
2019-02-26T15:00:05.428Z,0.00
2019-02-26T15:02:39.442Z,0.00
2019-02-26T15:05:12.114Z,0.00
2019-02-26T15:07:44.835Z,0.00
2019-02-26T15:10:17.403Z,0.00
2019-02-26T15:12:50.138Z,0.00
2019-02-26T15:15:23.287Z,0.00
2019-02-26T15:17:56.506Z,0.00
2019-02-26T15:20:29.476Z,0.00
2019-02-26T15:23:02.298Z,0.00
2019-02-26T15:25:35.144Z,0.00
2019-02-26T15:28:07.922Z,0.00
2019-02-26T15:30:40.417Z,0.00
2019-02-26T15:33:13.151Z,0.00
2019-02-26T15:35:46.899Z,0.00
2019-02-26T15:38:19.696Z,0.00
2019-02-26T15:40:53.332Z,0.00
2019-02-26T15:43:25.982Z,0.00
2019-02-26T15:45:59.771Z,0.00
2019-02-26T15:48:36.449Z,0.00
2019-02-26T15:51:14.356Z,0.00
2019-02-26T15:53:42.392Z,0.60
2019-02-26T15:56:15.107Z,0.00
2019-02-26T15:58:47.801Z,0.80
2019-02-26T16:01:20.505Z,0.00
2019-02-26T16:03:53.234Z,1.00
2019-02-26T16:06:25.965Z,1.00
2019-02-26T16:08:58.473Z,2.20
2019-02-26T16:11:31.354Z,3.00
2019-02-26T16:14:03.970Z,3.40
2019-02-26T16:16:36.765Z,3.20
2019-02-26T16:19:09.824Z,3.60
2019-02-26T16:21:42.413Z,4.00
2019-02-26T16:24:15.020Z,4.00
2019-02-26T16:26:47.635Z,5.20
2019-02-26T16:29:20.159Z,5.40
2019-02-26T16:31:52.645Z,10.80
2019-02-26T16:34:24.992Z,17.60
2019-02-26T16:36:57.526Z,20.40
2019-02-26T16:39:29.964Z,22.60
2019-02-26T16:42:02.646Z,23.00
2019-02-26T16:44:35.679Z,23.80
2019-02-26T16:47:08.302Z,25.60
2019-02-26T16:49:40.753Z,25.20
2019-02-26T16:52:13.374Z,27.00
2019-02-26T16:54:45.727Z,26.40
2019-02-26T16:57:18.067Z,28.25
2019-02-26T16:59:50.565Z,28.75
2019-02-26T17:02:27.212Z,29.00
2019-02-26T17:04:57.527Z,28.25
2019-02-26T17:07:32.158Z,27.00
2019-02-26T17:10:04.518Z,28.50
2019-02-26T17:12:37.422Z,28.75
2019-02-26T17:15:15.143Z,27.75
2019-02-26T17:17:48.015Z,27.50
2019-02-26T17:20:22.508Z,28.25
2019-02-26T17:22:54.687Z,28.75
2019-02-26T17:25:28.637Z,25.25
2019-02-26T17:28:01.476Z,27.50
2019-02-26T17:30:33.997Z,28.25
2019-02-26T17:33:06.404Z,26.25
2019-02-26T17:35:38.706Z,28.25
2019-02-26T17:38:12.854Z,27.75
2019-02-26T17:40:45.071Z,26.75
2019-02-26T17:43:17.592Z,26.75
2019-02-26T17:45:50.316Z,27.50
2019-02-26T17:48:22.723Z,26.00
2019-02-26T17:50:55.463Z,25.25
2019-02-26T17:53:28.349Z,24.75
2019-02-26T17:56:00.963Z,24.40
2019-02-26T17:58:33.265Z,26.00
2019-02-26T18:01:05.933Z,25.60
2019-02-26T18:03:38.388Z,23.20
2019-02-26T18:06:10.806Z,25.40
2019-02-26T18:08:43.149Z,24.00
2019-02-26T18:11:15.613Z,25.40
2019-02-26T18:13:48.332Z,24.00
2019-02-26T18:16:21.670Z,22.60
2019-02-26T18:18:54.736Z,22.20
2019-02-26T18:21:27.106Z,23.20
2019-02-26T18:23:59.519Z,23.40
2019-02-26T18:26:32.084Z,23.00
2019-02-26T18:29:04.638Z,22.80
2019-02-26T18:31:36.903Z,23.20
2019-02-26T18:34:11.744Z,21.60
2019-02-26T18:36:45.480Z,20.60
2019-02-26T18:39:22.396Z,22.60
2019-02-26T18:41:52.723Z,21.80
2019-02-26T18:44:25.045Z,19.60
2019-02-26T18:46:57.688Z,20.40
2019-02-26T18:49:30.118Z,21.40
2019-02-26T18:52:02.670Z,21.00
2019-02-26T18:54:35.132Z,20.20
2019-02-26T18:57:11.302Z,20.20
2019-02-26T18:59:41.546Z,20.20
2019-02-26T19:02:16.940Z,18.60
2019-02-26T19:04:49.448Z,19.80
2019-02-26T19:07:21.893Z,19.00
2019-02-26T19:09:54.378Z,17.60
2019-02-26T19:12:30.431Z,18.00
2019-02-26T19:15:00.993Z,17.60
2019-02-26T19:17:33.864Z,19.00
2019-02-26T19:20:09.270Z,18.20
2019-02-26T19:22:42.294Z,18.00
2019-02-26T19:25:15.321Z,15.80
2019-02-26T19:27:47.778Z,17.60
2019-02-26T19:30:22.545Z,15.80
2019-02-26T19:32:55.171Z,16.40
2019-02-26T19:35:27.759Z,15.60
2019-02-26T19:38:01.416Z,15.00
2019-02-26T19:40:49.566Z,15.00
2019-02-26T19:43:23.766Z,13.60
2019-02-26T19:45:56.181Z,14.60
2019-02-26T19:48:30.880Z,12.40
2019-02-26T19:51:02.675Z,16.60
2019-02-26T19:53:35.309Z,15.00
2019-02-26T19:56:07.831Z,12.60
2019-02-26T19:58:41.000Z,13.00
2019-02-26T20:01:14.230Z,14.40
2019-02-26T20:03:46.755Z,12.40
2019-02-26T20:06:23.302Z,11.00
2019-02-26T20:08:53.381Z,12.60
2019-02-26T20:11:25.693Z,9.80
2019-02-26T20:14:04.520Z,11.60
2019-02-26T20:16:32.070Z,12.20
2019-02-26T20:19:04.702Z,11.00
2019-02-26T20:21:37.409Z,11.40
2019-02-26T20:27:02.601Z,9.80
2019-02-26T20:29:36.156Z,9.20
2019-02-26T20:32:08.679Z,8.40
2019-02-26T20:34:41.121Z,10.00
2019-02-26T20:37:13.428Z,9.60
2019-02-26T20:39:45.962Z,10.00
2019-02-26T20:42:18.383Z,8.80
2019-02-26T20:44:58.800Z,10.00
2019-02-26T20:47:25.058Z,8.00
2019-02-26T20:49:57.610Z,8.60
2019-02-26T20:52:32.638Z,8.40
2019-02-26T20:55:04.341Z,7.80
2019-02-26T20:57:37.789Z,8.00
2019-02-26T21:00:15.762Z,7.40
2019-02-26T21:02:48.637Z,8.00
2019-02-26T21:05:21.385Z,8.00
2019-02-26T21:07:57.959Z,7.60
2019-02-26T21:10:28.248Z,7.00
2019-02-26T21:13:01.885Z,7.80
2019-02-26T21:15:34.868Z,5.40
2019-02-26T21:18:08.238Z,6.60
2019-02-26T21:20:41.754Z,6.00
2019-02-26T21:23:14.915Z,7.00
2019-02-26T21:25:47.602Z,5.60
2019-02-26T21:28:20.242Z,7.80
2019-02-26T21:30:52.887Z,6.80
2019-02-26T21:33:25.478Z,7.60
2019-02-26T21:35:58.097Z,7.00
2019-02-26T21:38:30.720Z,6.80
2019-02-26T21:41:03.416Z,7.00
2019-02-26T21:43:36.009Z,6.60
2019-02-26T21:46:08.631Z,6.40
2019-02-26T21:48:41.114Z,5.40
2019-02-26T21:51:13.759Z,5.20
2019-02-26T21:53:46.670Z,6.00
2019-02-26T21:56:20.502Z,5.80
2019-02-26T21:58:53.137Z,5.60
2019-02-26T22:01:25.742Z,6.00
2019-02-26T22:03:59.135Z,5.80
2019-02-26T22:06:32.109Z,4.20
2019-02-26T22:09:04.806Z,5.60
2019-02-26T22:11:38.674Z,5.80
2019-02-26T22:14:11.454Z,5.20
2019-02-26T22:16:44.014Z,4.40
2019-02-26T22:19:21.498Z,5.00
2019-02-26T22:21:55.812Z,6.20
2019-02-26T22:24:28.612Z,5.00
2019-02-26T22:27:01.324Z,6.00
2019-02-26T22:29:36.166Z,4.60
2019-02-26T22:32:08.210Z,4.80
2019-02-26T22:34:53.583Z,4.80
2019-02-26T22:37:26.905Z,4.60
2019-02-26T22:39:59.254Z,5.00
2019-02-26T22:42:31.694Z,4.00
2019-02-26T22:45:06.113Z,4.60
2019-02-26T22:47:40.569Z,5.00
2019-02-26T22:50:19.902Z,4.40
2019-02-26T22:52:52.327Z,4.60
2019-02-26T22:55:24.640Z,3.40
2019-02-26T22:57:57.329Z,4.00
2019-02-26T23:00:48.133Z,4.00
2019-02-26T23:03:20.512Z,4.40
2019-02-26T23:05:52.984Z,3.80
2019-02-26T23:08:25.953Z,5.00
2019-02-26T23:10:58.754Z,3.40
2019-02-26T23:13:31.939Z,4.40
2019-02-26T23:16:05.927Z,3.60
2019-02-26T23:18:38.550Z,5.60
2019-02-26T23:21:15.490Z,3.80
2019-02-26T23:23:46.157Z,4.20
2019-02-26T23:26:19.099Z,3.40
2019-02-26T23:28:54.488Z,3.80
2019-02-26T23:31:26.191Z,4.00
2019-02-26T23:33:58.686Z,3.00
2019-02-26T23:36:31.555Z,4.00
2019-02-26T23:39:05.972Z,4.00
2019-02-26T23:41:39.769Z,4.80
2019-02-26T23:44:12.817Z,3.00
2019-02-26T23:46:45.585Z,3.20
2019-02-26T23:49:18.068Z,4.00
2019-02-26T23:51:53.372Z,3.00
2019-02-26T23:54:24.392Z,3.40
2019-02-26T23:56:56.963Z,3.00
2019-02-26T23:59:29.975Z,4.00
